Falls International Airport

Airport
ICAO code: 
KINL
Summary
ICAO Region: 
NAM
Territory: 
Location: 
International Falls, Minnesota,
Coordinates: 
Aerial View: 
48° 33' 58" N, 93° 24' 11.002" W
Airport CFIT: 
Altimeter Temperature Error Correction
Airport GND: 
Aircraft Ground De/Anti Icing
Airport RE: 
Landing on Contaminated Runways
Metar
Observation
KINL 021454Z AUTO 33011KT 10SM OVC022 M01/M05 A2980 RMK AO2 SLP106 60000 T10061050 53038
Station
International Falls, Falls International Airport
Date/Time
2021-12-02 14:54:00
Wind direction
330°
Wind speed
11 kts
Lowest cloud amount
overcast
Temperature
-0.6°C
Dew point
-5°C
Humidity
72%
Weather condition
n/a

Description

Falls International Airport is a public use airport located in International Falls, a city in Koochiching County, Minnesota.

Climatology

Humid Continental climate (Köppen climate classification Dfb) - Variable weather patterns and a large seasonal temperature variance. Summers are often warm and humid with frequent thunderstorms and winters can be very cold with frequent snowfall and persistent snow cover.

Runways

Designator Length Width Surface Rops
4/22 914 23 ASP Yes/Yes
13/31 1984 46 ASP Yes/Yes
Airport map: 
Aerial View: 

SKYbrary Partners:

Safety knowledge contributed by: